Time;durP1;ratioP1;P1;durP2;ratioP2;P2;SDS_P1;SDS_P2;PMS_P1;PMS_P2;Temp;Humidity;BMP_temperature;BMP_pressure;BME280_temperature;BME280_humidity;BME280_pressure;Samples;Min_cycle;Max_cycle;Signal;HPM_P1;HPM_P2
2021/12/16 00:09:02;;;;;;;26.93;18.07;;;;;;;7.37;68.98;98300.50;5066753;28;20547;-69
2021/12/16 00:33:15;;;;;;;21.43;14.83;;;;;;;7.19;69.17;98310.41;5053356;28;20421;-68
2021/12/16 00:35:42;;;;;;;23.27;15.50;;;;;;;7.35;69.48;98312.00;5053837;28;20962;-68
2021/12/16 00:38:09;;;;;;;19.50;14.87;;;;;;;7.18;69.77;98313.97;5072500;28;20805;-68
2021/12/16 00:40:40;;;;;;;22.67;16.03;;;;;;;7.34;69.32;98310.31;5065493;28;20465;-69
2021/12/16 00:43:17;;;;;;;25.10;16.33;;;;;;;7.35;69.20;98314.59;5045682;28;20913;-68
2021/12/16 00:49:01;;;;;;;25.73;16.83;;;;;;;7.46;69.42;98319.09;5054819;28;20464;-70
2021/12/16 00:54:10;;;;;;;24.10;16.90;;;;;;;7.50;68.83;98313.56;5068764;28;20448;-68
2021/12/16 00:56:41;;;;;;;22.60;15.60;;;;;;;7.56;69.08;98321.91;5071445;28;20441;-71
2021/12/16 00:59:10;;;;;;;24.30;16.23;;;;;;;7.66;68.52;98315.09;5067656;28;20446;-70
2021/12/16 01:50:19;;;;;;;25.87;16.47;;;;;;;7.22;69.51;98331.06;5045420;28;20932;-67
2021/12/16 01:58:09;;;;;;;27.10;17.00;;;;;;;7.21;69.89;98328.59;5061638;28;20874;-69
2021/12/16 02:00:54;;;;;;;25.53;16.23;;;;;;;7.32;69.53;98326.09;5070742;28;20513;-69
2021/12/16 02:03:26;;;;;;;27.70;16.57;;;;;;;7.36;69.27;98332.75;5056942;28;20420;-69
2021/12/16 02:08:28;;;;;;;28.60;16.83;;;;;;;7.45;69.06;98323.44;5063147;28;20468;-68
2021/12/16 02:33:14;;;;;;;28.93;17.50;;;;;;;7.28;69.15;98313.34;5034815;28;20449;-68
2021/12/16 02:35:45;;;;;;;24.60;15.80;;;;;;;7.25;69.00;98303.13;5068696;28;20437;-68
2021/12/16 02:38:14;;;;;;;25.03;16.27;;;;;;;7.34;68.82;98302.50;5069533;28;20437;-68
2021/12/16 02:40:41;;;;;;;25.13;16.47;;;;;;;7.30;68.41;98295.84;5073930;28;20507;-70
2021/12/16 02:43:37;;;;;;;24.60;15.00;;;;;;;7.01;69.43;98304.66;5086124;28;20424;-69
2021/12/16 02:48:39;;;;;;;26.57;16.67;;;;;;;7.20;69.65;98303.44;5083574;28;20469;-70
2021/12/16 02:51:13;;;;;;;25.13;16.70;;;;;;;7.41;68.79;98298.53;5047264;28;20420;-69
2021/12/16 02:53:42;;;;;;;25.27;16.10;;;;;;;7.42;68.49;98305.44;5062038;28;20427;-71
2021/12/16 02:56:09;;;;;;;24.27;15.47;;;;;;;7.33;68.81;98306.03;5062504;28;20425;-70
2021/12/16 02:58:38;;;;;;;26.57;16.07;;;;;;;7.44;68.36;98303.53;5061120;28;20449;-70
2021/12/16 03:01:11;;;;;;;23.10;15.87;;;;;;;6.90;69.81;98309.75;5058154;28;20924;-68
2021/12/16 03:03:39;;;;;;;23.37;15.30;;;;;;;7.22;69.02;98299.78;5058111;28;20516;-70
2021/12/16 03:06:05;;;;;;;26.50;16.50;;;;;;;7.35;68.56;98305.00;5061555;28;20420;-67
2021/12/16 03:08:32;;;;;;;24.37;15.67;;;;;;;7.48;68.63;98299.78;5061302;28;20561;-71
2021/12/16 03:16:41;;;;;;;26.30;16.23;;;;;;;7.55;67.60;98304.59;5062855;28;20425;-69
2021/12/16 03:19:21;;;;;;;23.40;15.40;;;;;;;7.56;67.74;98304.47;5046118;28;20435;-70
2021/12/16 03:21:52;;;;;;;23.50;15.60;;;;;;;7.61;67.36;98296.31;5056920;28;20412;-69
2021/12/16 03:30:19;;;;;;;24.00;15.47;;;;;;;7.20;68.45;98299.03;5073042;28;20459;-68
2021/12/16 03:32:54;;;;;;;27.03;16.23;;;;;;;7.44;68.20;98298.31;5073669;28;20517;-68
2021/12/16 03:38:12;;;;;;;25.70;16.50;;;;;;;7.62;67.61;98300.59;5074560;28;20445;-68
2021/12/16 03:40:39;;;;;;;27.40;17.10;;;;;;;7.71;67.29;98297.34;5070401;28;20833;-71
2021/12/16 03:43:09;;;;;;;28.43;17.53;;;;;;;7.39;68.21;98303.03;5056965;28;20218;-69
2021/12/16 03:48:35;;;;;;;28.93;18.33;;;;;;;7.72;67.43;98308.63;5082099;28;20460;-69
2021/12/16 03:51:05;;;;;;;27.20;18.03;;;;;;;7.74;66.97;98304.97;5068199;28;20435;-69
2021/12/16 03:53:30;;;;;;;30.97;18.83;;;;;;;7.55;67.58;98315.03;5073595;28;20467;-67
2021/12/16 03:55:56;;;;;;;33.33;17.60;;;;;;;7.56;67.41;98314.06;5059030;28;20979;-68
2021/12/16 03:58:22;;;;;;;30.53;18.43;;;;;;;7.53;68.18;98326.38;5058556;28;20626;-69
2021/12/16 04:00:52;;;;;;;28.83;17.23;;;;;;;7.62;67.48;98324.94;5071573;28;20205;-68
2021/12/16 04:03:17;;;;;;;29.20;17.70;;;;;;;7.69;67.92;98333.13;5067488;28;20205;-68
2021/12/16 04:05:44;;;;;;;29.47;17.00;;;;;;;7.19;68.19;98331.28;5043049;28;20434;-71
2021/12/16 04:08:10;;;;;;;27.10;15.97;;;;;;;7.63;67.96;98328.34;5030847;28;20639;-70
2021/12/16 04:10:43;;;;;;;27.67;16.50;;;;;;;7.72;67.68;98317.28;5064713;28;20437;-68
2021/12/16 04:13:12;;;;;;;30.77;17.50;;;;;;;7.79;67.63;98323.75;5058104;28;20186;-70
2021/12/16 04:15:38;;;;;;;28.40;16.83;;;;;;;7.84;67.12;98331.25;5061410;28;20924;-69
2021/12/16 04:18:04;;;;;;;27.57;16.47;;;;;;;7.80;66.91;98321.97;5041704;28;20872;-68
2021/12/16 04:20:30;;;;;;;28.47;17.00;;;;;;;7.73;67.48;98324.16;5048964;28;20514;-68
2021/12/16 04:22:55;;;;;;;25.37;15.27;;;;;;;7.67;67.32;98328.03;5065631;28;20641;-70
2021/12/16 04:25:24;;;;;;;27.10;15.80;;;;;;;7.67;67.60;98328.03;5070297;28;20927;-68
2021/12/16 04:27:53;;;;;;;25.23;16.30;;;;;;;7.71;67.44;98335.66;5060537;28;20233;-67
2021/12/16 04:30:20;;;;;;;26.73;15.77;;;;;;;7.69;67.22;98335.75;5056300;28;20431;-70
2021/12/16 04:32:45;;;;;;;27.97;16.90;;;;;;;7.55;67.30;98326.28;5054663;28;20429;-68
2021/12/16 04:35:11;;;;;;;27.50;17.00;;;;;;;7.56;67.47;98321.91;5072387;28;20842;-67
2021/12/16 04:37:37;;;;;;;30.07;16.37;;;;;;;7.46;68.35;98326.91;5050001;28;20227;-68
2021/12/16 04:40:09;;;;;;;29.47;17.60;;;;;;;7.47;67.79;98324.19;5069529;28;20463;-68
2021/12/16 04:42:36;;;;;;;27.80;17.23;;;;;;;7.35;67.96;98327.63;5047591;28;20191;-67
2021/12/16 04:45:05;;;;;;;29.30;16.73;;;;;;;7.48;67.89;98327.66;5048025;28;20575;-68
2021/12/16 04:47:30;;;;;;;31.60;17.43;;;;;;;7.56;67.83;98327.94;5070461;28;20509;-69
2021/12/16 04:49:56;;;;;;;33.33;17.33;;;;;;;7.52;67.74;98329.09;5068752;28;20511;-69
2021/12/16 04:52:22;;;;;;;30.17;17.73;;;;;;;7.53;67.86;98336.81;5057631;28;20182;-68
2021/12/16 04:54:47;;;;;;;32.07;18.20;;;;;;;7.54;67.48;98322.00;5063153;28;20183;-68
2021/12/16 04:57:14;;;;;;;30.23;17.13;;;;;;;7.46;67.67;98326.91;5067449;28;20182;-70
2021/12/16 04:59:40;;;;;;;30.70;18.20;;;;;;;7.46;68.31;98325.13;5052016;28;20210;-68
2021/12/16 05:02:15;;;;;;;33.40;18.37;;;;;;;7.57;67.58;98323.53;5063936;28;20417;-68
2021/12/16 05:04:41;;;;;;;35.53;18.90;;;;;;;7.58;67.22;98333.03;5063482;28;20193;-67
2021/12/16 05:07:08;;;;;;;32.77;17.70;;;;;;;7.53;67.50;98333.38;5059052;28;20874;-68
2021/12/16 05:12:15;;;;;;;33.50;17.60;;;;;;;7.53;67.19;98344.66;5059590;28;20422;-69
2021/12/16 05:14:43;;;;;;;44.97;22.73;;;;;;;7.13;68.40;98347.34;5060371;28;20424;-69
2021/12/16 05:17:24;;;;;;;36.33;19.43;;;;;;;7.34;68.51;98346.81;5060169;28;20508;-68
2021/12/16 05:19:52;;;;;;;37.37;20.37;;;;;;;7.37;68.54;98342.22;5060885;28;20424;-69
2021/12/16 05:25:07;;;;;;;33.90;18.37;;;;;;;7.32;68.47;98343.47;5071279;28;20424;-68
2021/12/16 05:27:33;;;;;;;30.53;17.23;;;;;;;7.28;68.47;98336.81;5065942;28;20520;-69
2021/12/16 05:29:58;;;;;;;33.50;18.40;;;;;;;7.34;68.52;98347.69;5062205;28;20916;-70
2021/12/16 05:32:24;;;;;;;37.03;18.83;;;;;;;7.29;68.20;98346.31;5058582;28;20187;-68
2021/12/16 05:34:49;;;;;;;37.40;19.07;;;;;;;7.35;68.63;98345.88;5069125;28;20652;-68
2021/12/16 05:37:15;;;;;;;30.33;16.40;;;;;;;7.49;68.18;98352.78;5055090;28;20199;-68
2021/12/16 05:39:41;;;;;;;32.07;17.83;;;;;;;7.48;68.16;98351.13;5049914;28;20298;-69
2021/12/16 05:42:06;;;;;;;30.63;17.40;;;;;;;7.32;68.30;98364.34;5062494;28;20742;-68
2021/12/16 05:44:32;;;;;;;46.80;23.37;;;;;;;6.94;69.44;98367.72;5061623;28;20182;-67
2021/12/16 05:46:58;;;;;;;31.90;16.60;;;;;;;6.83;69.78;98377.09;5070630;28;20657;-68
2021/12/16 05:49:24;;;;;;;34.63;18.53;;;;;;;6.97;70.42;98378.81;5062752;28;20234;-70
2021/12/16 05:51:50;;;;;;;32.40;17.77;;;;;;;7.03;70.12;98388.00;5060956;28;20194;-69
2021/12/16 05:54:16;;;;;;;31.17;17.43;;;;;;;6.74;70.52;98393.34;5060863;28;20774;-68
2021/12/16 05:56:42;;;;;;;35.77;19.83;;;;;;;6.86;70.55;98395.16;5070429;28;20807;-69
2021/12/16 05:59:11;;;;;;;34.33;19.37;;;;;;;6.55;70.85;98394.50;5062304;28;20437;-69
2021/12/16 06:01:39;;;;;;;36.77;18.13;;;;;;;6.60;71.69;98402.03;5056390;28;20649;-69
2021/12/16 06:04:05;;;;;;;35.07;18.10;;;;;;;6.45;72.13;98396.03;5052388;28;20428;-68
2021/12/16 06:06:31;;;;;;;34.27;17.30;;;;;;;6.48;72.22;98403.66;5049486;28;20469;-70
2021/12/16 06:08:58;;;;;;;35.30;17.77;;;;;;;6.44;71.98;98407.38;5056095;28;20612;-70
2021/12/16 06:11:28;;;;;;;39.60;18.57;;;;;;;6.50;71.49;98408.75;5056002;28;20182;-68
2021/12/16 06:14:10;;;;;;;33.97;17.30;;;;;;;6.41;72.30;98402.38;5060278;28;20430;-69
2021/12/16 06:27:36;;;;;;;33.87;16.47;;;;;;;7.23;69.97;98410.16;5056766;28;20495;-70
2021/12/16 06:30:05;;;;;;;41.00;18.17;;;;;;;7.32;69.54;98403.47;5069614;28;21076;-68
2021/12/16 06:32:31;;;;;;;38.03;17.90;;;;;;;7.10;69.96;98398.88;5062905;28;20844;-68
2021/12/16 06:34:56;;;;;;;37.13;17.37;;;;;;;7.14;69.85;98398.56;5059109;28;20417;-67
2021/12/16 06:37:23;;;;;;;33.77;17.77;;;;;;;7.22;69.78;98401.47;5065655;28;20194;-67
2021/12/16 06:39:49;;;;;;;36.53;16.90;;;;;;;7.30;69.81;98398.38;5066482;28;20207;-68
2021/12/16 06:42:15;;;;;;;35.23;17.50;;;;;;;7.30;69.30;98405.38;5047636;28;20432;-69
2021/12/16 06:44:47;;;;;;;36.90;17.70;;;;;;;7.52;68.61;98404.75;5055425;28;20436;-69
2021/12/16 06:47:20;;;;;;;37.67;18.77;;;;;;;7.66;68.99;98401.22;5067410;28;21168;-68
2021/12/16 06:49:48;;;;;;;35.73;18.73;;;;;;;7.60;68.16;98391.19;5066747;28;20539;-68
2021/12/16 06:52:17;;;;;;;35.93;18.87;;;;;;;7.41;69.11;98408.09;5050804;28;20453;-69
2021/12/16 06:55:23;;;;;;;34.77;16.83;;;;;;;7.51;69.35;98398.72;5068263;28;20877;-69
2021/12/16 06:57:41;;;;;;;33.53;17.77;;;;;;;7.36;68.33;98405.81;5066166;28;20958;-69
2021/12/16 07:00:22;;;;;;;32.90;16.80;;;;;;;7.47;68.50;98412.06;5046693;28;20500;-68
2021/12/16 07:03:01;;;;;;;32.27;16.67;;;;;;;7.60;68.64;98414.66;5061424;28;20427;-67
2021/12/16 07:05:31;;;;;;;34.83;18.40;;;;;;;7.58;68.83;98411.31;5056042;28;20428;-68
2021/12/16 07:07:57;;;;;;;31.13;16.53;;;;;;;7.47;68.46;98418.09;5062251;28;20518;-68
2021/12/16 07:10:23;;;;;;;29.30;17.83;;;;;;;6.99;69.94;98412.59;5062056;28;20991;-67
2021/12/16 07:12:49;;;;;;;30.67;16.53;;;;;;;6.88;70.92;98421.94;5068714;28;20515;-69
2021/12/16 07:15:21;;;;;;;27.13;15.80;;;;;;;6.66;70.90;98427.69;5054357;28;20198;-68
2021/12/16 07:17:51;;;;;;;26.80;15.50;;;;;;;7.07;70.52;98431.16;5059737;28;20960;-68
2021/12/16 07:20:20;;;;;;;29.10;15.83;;;;;;;7.30;69.25;98431.44;5062741;28;20934;-67
2021/12/16 07:22:46;;;;;;;27.33;15.43;;;;;;;7.38;69.14;98429.97;5060234;28;20842;-68
2021/12/16 07:25:11;;;;;;;27.43;15.47;;;;;;;6.94;70.26;98440.72;5069299;28;20424;-67
2021/12/16 07:27:37;;;;;;;28.47;15.17;;;;;;;7.03;70.47;98434.94;5050758;28;20662;-69
2021/12/16 07:30:07;;;;;;;29.70;15.93;;;;;;;6.91;70.67;98434.78;5070520;28;20553;-69
2021/12/16 07:32:33;;;;;;;30.63;15.60;;;;;;;6.96;70.52;98428.44;5072175;28;20186;-67
2021/12/16 07:34:59;;;;;;;27.73;15.07;;;;;;;7.41;69.84;98439.41;5053958;28;20425;-68
2021/12/16 07:37:24;;;;;;;28.73;15.00;;;;;;;7.40;69.54;98435.13;5062219;28;20580;-67
2021/12/16 07:39:51;;;;;;;28.43;15.53;;;;;;;7.12;69.83;98439.53;5061187;28;20186;-68
2021/12/16 07:42:25;;;;;;;25.30;15.40;;;;;;;7.20;69.71;98439.84;5069906;28;20261;-66
2021/12/16 07:44:50;;;;;;;31.20;15.90;;;;;;;7.16;70.17;98445.38;5051991;28;20432;-68
2021/12/16 07:47:16;;;;;;;28.77;15.60;;;;;;;7.16;69.48;98440.16;5071308;28;20442;-68
2021/12/16 07:49:43;;;;;;;25.97;14.97;;;;;;;7.05;70.64;98456.53;5073548;28;20293;-68
2021/12/16 07:52:12;;;;;;;28.80;16.30;;;;;;;7.04;70.66;98455.69;5068999;28;20270;-69
2021/12/16 07:54:38;;;;;;;29.63;16.37;;;;;;;7.13;69.92;98450.78;5067949;28;20426;-69
2021/12/16 07:57:04;;;;;;;33.07;16.30;;;;;;;7.27;69.74;98449.91;5050517;28;20446;-68
2021/12/16 07:59:32;;;;;;;30.37;16.60;;;;;;;7.41;69.19;98452.44;5060972;28;20707;-69
2021/12/16 08:01:58;;;;;;;31.60;16.70;;;;;;;6.91;70.61;98455.66;5067931;28;20458;-68
2021/12/16 08:04:29;;;;;;;28.77;15.77;;;;;;;6.38;73.02;98460.69;5067032;28;20437;-68
2021/12/16 08:07:04;;;;;;;30.73;15.37;;;;;;;7.10;71.09;98458.84;5076470;28;20428;-69
2021/12/16 08:09:31;;;;;;;36.77;17.90;;;;;;;7.51;69.65;98465.69;5069059;28;20473;-67
2021/12/16 08:11:57;;;;;;;44.40;18.63;;;;;;;7.15;70.16;98462.81;5068644;28;20514;-69
2021/12/16 08:14:24;;;;;;;34.03;17.57;;;;;;;6.89;70.82;98457.50;5068535;28;20732;-67
2021/12/16 08:16:49;;;;;;;32.83;17.20;;;;;;;6.67;71.97;98465.03;5070950;28;20797;-70
2021/12/16 08:19:15;;;;;;;34.53;16.83;;;;;;;6.85;72.01;98474.25;5071816;28;20453;-67
2021/12/16 08:21:41;;;;;;;39.93;18.37;;;;;;;7.06;71.05;98481.63;5058998;28;20193;-68
2021/12/16 08:24:13;;;;;;;36.00;18.23;;;;;;;7.32;70.46;98485.19;5073128;28;20461;-67
2021/12/16 08:26:40;;;;;;;30.60;16.50;;;;;;;7.49;69.99;98486.66;5068573;28;20490;-69
2021/12/16 08:29:06;;;;;;;34.70;17.10;;;;;;;7.19;69.75;98490.34;5065300;28;20465;-68
2021/12/16 08:31:33;;;;;;;27.70;15.37;;;;;;;7.23;70.15;98483.19;5065347;28;20433;-68
2021/12/16 08:33:59;;;;;;;31.30;17.40;;;;;;;7.03;70.61;98487.06;5061266;28;20198;-67
2021/12/16 08:36:25;;;;;;;33.13;16.20;;;;;;;7.12;70.76;98483.88;5058819;28;20452;-68
2021/12/16 08:38:51;;;;;;;33.00;16.40;;;;;;;6.98;71.32;98489.13;5055450;28;20442;-69
2021/12/16 08:41:27;;;;;;;31.73;16.13;;;;;;;7.36;70.78;98491.88;5059064;28;20501;-67
2021/12/16 08:43:53;;;;;;;33.50;17.47;;;;;;;7.59;69.92;98488.66;5068746;28;20186;-69
2021/12/16 08:46:22;;;;;;;28.20;15.13;;;;;;;7.20;69.78;98483.38;5044885;28;20429;-68
2021/12/16 08:48:48;;;;;;;27.30;16.20;;;;;;;7.26;69.82;98492.56;5064771;28;20471;-70
2021/12/16 08:51:17;;;;;;;26.47;14.90;;;;;;;7.20;70.42;98489.41;5060380;28;20992;-67
2021/12/16 08:53:42;;;;;;;28.17;15.60;;;;;;;7.61;69.54;98492.00;5061535;28;20452;-68
2021/12/16 08:56:08;;;;;;;26.40;14.77;;;;;;;7.78;68.55;98496.09;5073019;28;20884;-70
2021/12/16 08:58:37;;;;;;;25.40;14.40;;;;;;;7.95;67.79;98494.97;5050835;28;20925;-70
2021/12/16 09:01:09;;;;;;;26.67;14.37;;;;;;;7.61;69.05;98499.84;5071448;28;20194;-67
2021/12/16 09:03:34;;;;;;;26.90;14.60;;;;;;;8.08;67.98;98500.19;5072036;28;20429;-68
2021/12/16 09:06:00;;;;;;;27.63;14.70;;;;;;;8.32;67.00;98502.06;5063337;28;20427;-68
2021/12/16 09:08:26;;;;;;;27.60;15.20;;;;;;;8.29;67.10;98500.50;5062422;28;20354;-67
2021/12/16 09:10:53;;;;;;;28.63;14.50;;;;;;;8.54;66.92;98506.66;5068915;28;20228;-68
2021/12/16 09:13:19;;;;;;;39.23;19.83;;;;;;;8.67;66.60;98507.47;5060527;28;20817;-69
2021/12/16 09:15:52;;;;;;;29.97;15.50;;;;;;;8.76;65.86;98512.03;5052622;28;20487;-69
2021/12/16 09:18:21;;;;;;;27.63;13.83;;;;;;;8.81;65.06;98509.09;5059107;28;20221;-67
2021/12/16 09:20:46;;;;;;;23.50;13.50;;;;;;;8.92;65.23;98500.50;5051713;28;20923;-67
2021/12/16 09:23:13;;;;;;;31.27;16.60;;;;;;;8.85;65.07;98510.56;5044127;28;20437;-68
2021/12/16 09:25:40;;;;;;;24.57;13.43;;;;;;;8.98;65.27;98514.91;5035310;28;20191;-69
2021/12/16 09:28:05;;;;;;;25.77;14.20;;;;;;;8.98;65.38;98509.69;5055101;28;20465;-70
2021/12/16 09:30:34;;;;;;;27.87;14.23;;;;;;;9.00;65.03;98513.03;5066903;28;20483;-67
2021/12/16 09:33:01;;;;;;;23.10;13.87;;;;;;;9.13;64.38;98513.81;5054763;28;20182;-68
2021/12/16 09:35:29;;;;;;;29.50;17.10;;;;;;;9.05;64.05;98513.50;5064419;28;20441;-67
2021/12/16 09:37:56;;;;;;;29.33;17.37;;;;;;;9.17;63.68;98517.03;5069034;28;20936;-69
2021/12/16 09:40:25;;;;;;;30.83;15.53;;;;;;;9.15;64.13;98521.53;5071126;28;20456;-66
2021/12/16 09:42:52;;;;;;;28.13;15.73;;;;;;;9.16;64.29;98523.22;5060956;28;20429;-71
2021/12/16 09:45:18;;;;;;;28.03;15.93;;;;;;;9.16;64.54;98525.81;5058164;28;20509;-67
2021/12/16 09:47:44;;;;;;;31.13;16.10;;;;;;;8.79;65.16;98525.84;5063571;28;20856;-67
2021/12/16 09:50:13;;;;;;;27.40;16.23;;;;;;;8.96;65.53;98527.25;5047969;28;20441;-68
2021/12/16 09:52:39;;;;;;;28.47;16.73;;;;;;;9.15;65.22;98530.19;5051803;28;20434;-69
2021/12/16 09:55:06;;;;;;;26.20;15.10;;;;;;;9.13;65.21;98533.88;5062865;28;20425;-69
2021/12/16 09:57:32;;;;;;;26.03;15.20;;;;;;;9.26;64.43;98526.81;5053589;28;20414;-68
2021/12/16 09:59:58;;;;;;;25.20;14.80;;;;;;;9.23;64.63;98532.28;5052568;28;21216;-68
2021/12/16 10:02:24;;;;;;;22.70;14.20;;;;;;;9.17;64.82;98530.13;5071104;28;20259;-68
2021/12/16 10:04:50;;;;;;;26.33;15.07;;;;;;;9.18;64.68;98530.00;5063686;28;20520;-69
2021/12/16 10:07:21;;;;;;;24.97;14.70;;;;;;;9.29;64.68;98533.59;5066218;28;20190;-68
2021/12/16 10:09:50;;;;;;;26.30;15.00;;;;;;;9.05;65.49;98543.13;5062347;28;20735;-68
2021/12/16 10:12:20;;;;;;;26.90;15.93;;;;;;;8.99;65.37;98540.13;5056714;28;20421;-66
2021/12/16 10:17:32;;;;;;;30.63;16.90;;;;;;;8.93;65.63;98543.16;5061965;28;20982;-70
2021/12/16 10:20:09;;;;;;;31.13;17.80;;;;;;;8.98;65.28;98541.88;5056848;28;20962;-67
2021/12/16 10:22:40;;;;;;;28.30;16.03;;;;;;;8.99;65.60;98532.28;5059834;28;20790;-69
2021/12/16 10:25:22;;;;;;;35.03;20.30;;;;;;;9.16;65.25;98528.44;5061040;28;20911;-69
2021/12/16 10:28:13;;;;;;;29.60;16.47;;;;;;;9.10;64.68;98527.09;5064239;28;20475;-69
2021/12/16 10:30:48;;;;;;;27.37;15.63;;;;;;;8.75;66.51;98531.28;5050617;28;20798;-67
2021/12/16 10:33:20;;;;;;;25.70;15.10;;;;;;;9.15;65.61;98527.59;5056419;28;20428;-67
2021/12/16 10:35:47;;;;;;;27.27;15.50;;;;;;;9.32;64.57;98523.78;5070033;28;21006;-70
2021/12/16 10:38:16;;;;;;;29.50;16.50;;;;;;;9.50;64.19;98520.72;5068356;28;20476;-67
2021/12/16 10:40:45;;;;;;;30.50;17.53;;;;;;;9.47;63.78;98526.19;5061638;28;20508;-71
2021/12/16 10:43:16;;;;;;;26.90;15.70;;;;;;;9.43;64.01;98535.22;5058514;28;20881;-70
2021/12/16 10:45:46;;;;;;;25.03;15.20;;;;;;;9.62;63.53;98525.06;5057307;28;20437;-68
2021/12/16 10:48:27;;;;;;;26.70;16.40;;;;;;;9.32;63.57;98528.16;5062374;28;20582;-67
2021/12/16 10:50:59;;;;;;;32.77;16.40;;;;;;;9.63;63.67;98531.16;5054185;28;20444;-69
2021/12/16 10:53:52;;;;;;;30.20;16.30;;;;;;;9.57;62.86;98523.72;5053582;28;20464;-68
2021/12/16 10:56:23;;;;;;;30.50;17.73;;;;;;;9.56;63.25;98525.53;5049655;28;20425;-69
2021/12/16 10:58:54;;;;;;;22.90;14.37;;;;;;;9.56;63.44;98530.75;5060898;28;20469;-69
2021/12/16 11:01:34;;;;;;;25.03;15.30;;;;;;;9.58;62.96;98534.06;5062572;28;20991;-68
2021/12/16 11:04:01;;;;;;;30.23;14.77;;;;;;;9.66;62.71;98530.91;5060872;28;20431;-66
2021/12/16 11:06:27;;;;;;;28.30;15.83;;;;;;;9.49;63.01;98533.00;5055873;28;20502;-71
2021/12/16 11:08:53;;;;;;;69.10;24.73;;;;;;;9.52;63.31;98532.75;5067627;28;20904;-65
2021/12/16 11:11:29;;;;;;;33.03;16.13;;;;;;;9.43;63.90;98527.38;5064507;28;20182;-68
2021/12/16 11:14:05;;;;;;;76.20;28.53;;;;;;;9.45;64.19;98528.09;5054183;28;20440;-67
2021/12/16 11:16:33;;;;;;;30.17;16.50;;;;;;;9.40;63.82;98530.22;5065919;28;20433;-67
2021/12/16 11:18:59;;;;;;;24.13;14.73;;;;;;;9.42;63.50;98537.00;5061770;28;20522;-70
2021/12/16 11:21:39;;;;;;;27.60;15.57;;;;;;;9.47;63.16;98529.66;5064937;28;20788;-68
2021/12/16 11:24:22;;;;;;;25.87;15.30;;;;;;;9.38;63.85;98531.16;5050793;28;20449;-68
2021/12/16 11:26:47;;;;;;;24.97;14.50;;;;;;;9.40;63.53;98530.22;5053239;28;20421;-68
2021/12/16 11:29:13;;;;;;;28.27;15.20;;;;;;;9.33;63.83;98530.66;5059112;28;20532;-68
2021/12/16 11:31:40;;;;;;;26.63;14.17;;;;;;;9.32;64.33;98530.78;5069519;28;20269;-68
2021/12/16 11:34:09;;;;;;;39.50;21.17;;;;;;;9.20;65.31;98529.88;5054129;28;20181;-67
2021/12/16 11:36:45;;;;;;;31.80;15.70;;;;;;;9.24;65.03;98533.94;5062101;28;20786;-67
2021/12/16 11:39:24;;;;;;;28.90;14.17;;;;;;;9.30;64.94;98536.13;5059131;28;20482;-67
2021/12/16 11:42:00;;;;;;;24.87;14.57;;;;;;;9.54;64.41;98535.28;5073600;28;20753;-67
2021/12/16 11:44:33;;;;;;;29.90;16.00;;;;;;;9.40;64.39;98538.06;5066619;28;20704;-68
2021/12/16 11:47:09;;;;;;;28.57;16.63;;;;;;;9.43;64.33;98535.22;5062688;28;20440;-68
2021/12/16 11:49:36;;;;;;;28.30;16.47;;;;;;;9.54;64.32;98532.66;5065802;28;20540;-69
2021/12/16 11:52:21;;;;;;;30.87;16.70;;;;;;;9.46;64.34;98540.22;5043429;28;20512;-68
2021/12/16 11:54:53;;;;;;;25.60;16.10;;;;;;;9.51;63.39;98538.94;5056371;28;20456;-67
2021/12/16 11:57:24;;;;;;;26.90;16.23;;;;;;;9.66;62.77;98541.38;5062559;28;20876;-68
2021/12/16 11:59:59;;;;;;;25.80;14.67;;;;;;;9.57;63.01;98539.44;5060494;28;21150;-69
2021/12/16 12:02:26;;;;;;;31.40;16.80;;;;;;;9.75;63.23;98539.84;5065973;28;20420;-68
2021/12/16 12:04:54;;;;;;;35.30;15.10;;;;;;;9.67;63.49;98538.66;5055925;28;21015;-68
2021/12/16 12:07:20;;;;;;;25.27;14.37;;;;;;;9.52;63.75;98545.00;5047278;28;20428;-67
2021/12/16 12:09:49;;;;;;;24.13;14.50;;;;;;;9.54;63.05;98535.28;5064066;28;20438;-67
2021/12/16 12:12:15;;;;;;;27.53;15.27;;;;;;;9.73;63.04;98532.13;5059456;28;20444;-67
2021/12/16 12:14:44;;;;;;;23.27;14.03;;;;;;;9.57;62.40;98537.69;5070350;28;20433;-69
2021/12/16 12:17:19;;;;;;;20.07;12.40;;;;;;;9.92;62.32;98530.72;5065953;28;20251;-67
2021/12/16 12:19:49;;;;;;;23.67;14.17;;;;;;;10.14;61.32;98520.28;5054314;28;20455;-69
2021/12/16 12:22:15;;;;;;;32.40;16.90;;;;;;;10.18;60.70;98514.81;5069278;28;20559;-67
2021/12/16 12:24:46;;;;;;;24.50;14.80;;;;;;;10.16;60.41;98514.94;5071881;28;20421;-67
2021/12/16 12:27:15;;;;;;;22.60;13.87;;;;;;;10.07;60.17;98515.66;5065413;28;20453;-67
2021/12/16 12:29:43;;;;;;;18.43;12.20;;;;;;;10.05;60.42;98512.31;5061837;28;20563;-66
2021/12/16 12:32:19;;;;;;;20.37;13.43;;;;;;;10.09;60.33;98516.34;5066156;28;20429;-66
2021/12/16 12:34:52;;;;;;;24.13;13.97;;;;;;;10.20;60.45;98503.28;5064273;28;20515;-67
2021/12/16 12:37:21;;;;;;;23.80;15.23;;;;;;;10.30;60.18;98504.25;5065384;28;20986;-67
2021/12/16 12:39:58;;;;;;;21.00;13.47;;;;;;;10.39;60.19;98497.50;5068352;28;20493;-68
2021/12/16 12:42:24;;;;;;;24.17;13.33;;;;;;;10.26;60.33;98500.19;5069186;28;20439;-67
2021/12/16 12:44:50;;;;;;;23.40;15.23;;;;;;;10.39;60.16;98488.78;5069846;28;20522;-68
2021/12/16 12:47:20;;;;;;;26.23;15.33;;;;;;;10.38;59.99;98489.72;5073280;28;20424;-68
2021/12/16 12:49:46;;;;;;;21.97;13.87;;;;;;;10.52;59.28;98484.25;5062525;28;20627;-68
2021/12/16 12:52:18;;;;;;;24.03;13.90;;;;;;;10.45;59.83;98494.38;5066484;28;20424;-68
2021/12/16 12:54:57;;;;;;;20.30;12.83;;;;;;;10.56;59.83;98483.06;5073041;28;20440;-69
2021/12/16 12:57:32;;;;;;;20.93;13.00;;;;;;;10.70;59.66;98483.75;5071567;28;20810;-67
2021/12/16 12:59:58;;;;;;;22.80;14.50;;;;;;;10.63;59.47;98493.91;5072303;28;20419;-69
2021/12/16 13:02:32;;;;;;;23.90;14.93;;;;;;;10.81;59.34;98494.22;5072519;28;20792;-68
2021/12/16 13:05:07;;;;;;;22.83;13.30;;;;;;;10.76;59.75;98483.25;5064892;28;20496;-68
2021/12/16 13:07:46;;;;;;;22.10;13.37;;;;;;;10.93;58.99;98476.66;5065493;28;20431;-67
2021/12/16 13:10:22;;;;;;;27.27;13.90;;;;;;;10.41;60.52;98495.56;5054144;28;20920;-69
2021/12/16 13:13:05;;;;;;;21.00;13.70;;;;;;;10.70;59.51;98499.50;5056846;28;20910;-69
2021/12/16 13:23:41;;;;;;;26.00;16.10;;;;;;;10.72;59.00;98497.56;5062284;28;20982;-68
2021/12/16 13:26:35;;;;;;;24.40;14.53;;;;;;;10.86;59.02;98499.91;5048262;28;20780;-67
2021/12/16 13:29:33;;;;;;;24.20;14.47;;;;;;;10.88;58.72;98497.19;5062897;28;20475;-67
2021/12/16 13:32:14;;;;;;;22.03;14.53;;;;;;;10.68;59.37;98496.16;5063350;28;20417;-67
2021/12/16 13:37:48;;;;;;;20.77;13.20;;;;;;;10.62;59.71;98499.25;5053465;28;20483;-72
2021/12/16 13:40:13;;;;;;;30.93;15.93;;;;;;;10.68;59.40;98491.72;5057417;28;20919;-69
2021/12/16 13:42:47;;;;;;;25.60;14.90;;;;;;;10.57;59.71;98487.34;5070634;28;20424;-67
2021/12/16 13:45:35;;;;;;;21.70;13.60;;;;;;;10.60;59.13;98491.50;5056793;28;20555;-68
2021/12/16 13:48:34;;;;;;;22.80;13.03;;;;;;;10.49;59.28;98496.75;5063184;28;20457;-67
2021/12/16 14:04:59;;;;;;;26.10;13.63;;;;;;;10.52;59.43;98518.31;5056008;28;20533;-68
2021/12/16 14:07:56;;;;;;;20.40;13.15;;;;;;;10.26;59.93;98523.75;5059330;28;20425;-69
2021/12/16 14:10:56;;;;;;;16.13;11.27;;;;;;;9.56;60.49;98520.28;5059454;28;20975;-67
2021/12/16 14:16:25;;;;;;;20.93;10.97;;;;;;;10.08;60.13;98530.44;5059663;28;20755;-67
2021/12/16 14:38:54;;;;;;;22.30;13.03;;;;;;;10.28;60.27;98542.81;5074415;28;20437;-67
2021/12/16 14:46:47;;;;;;;28.90;18.00;;;;;;;10.08;60.65;98546.16;5059444;28;20428;-68
2021/12/16 14:49:13;;;;;;;24.40;13.63;;;;;;;9.98;61.25;98548.63;5056185;28;20533;-68
2021/12/16 14:51:38;;;;;;;23.60;14.80;;;;;;;10.17;60.69;98545.44;5053855;28;20426;-67
2021/12/16 14:54:04;;;;;;;35.80;19.10;;;;;;;10.10;60.48;98541.59;5070881;28;20182;-67
2021/12/16 14:56:36;;;;;;;27.73;18.13;;;;;;;10.10;60.70;98538.97;5063906;28;20205;-69
2021/12/16 14:59:06;;;;;;;29.47;16.60;;;;;;;10.11;60.79;98541.50;5062289;28;20610;-68
2021/12/16 15:01:35;;;;;;;27.87;16.17;;;;;;;9.92;61.72;98535.97;5070769;28;20782;-69
2021/12/16 15:04:01;;;;;;;26.77;16.50;;;;;;;10.06;61.08;98543.63;5060581;28;20443;-67